Time;durP1;ratioP1;P1;durP2;ratioP2;P2;SDS_P1;SDS_P2;PMS_P1;PMS_P2;Temp;Humidity;BMP_temperature;BMP_pressure;BME280_temperature;BME280_humidity;BME280_pressure;Samples;Min_cycle;Max_cycle;Signal;HPM_P1;HPM_P2
2022/01/09 00:01:32;;;;;;;;;;;;;;;-2.54;75.70;97490.91;106144;1281;25371;-85
2022/01/09 00:03:58;;;;;;;;;;;;;;;-2.62;75.80;97491.27;106177;1281;123832;-85
2022/01/09 00:06:25;;;;;;;;;;;;;;;-2.67;76.18;97485.66;106141;1281;22561;-85
2022/01/09 00:08:51;;;;;;;;;;;;;;;-2.73;76.38;97478.45;106263;1280;22599;-85
2022/01/09 00:11:24;;;;;;;;;;;;;;;-2.79;76.77;97483.57;106021;1281;124666;-85
2022/01/09 00:13:51;;;;;;;;;;;;;;;-2.84;76.88;97484.41;106292;1281;23176;-85
2022/01/09 00:16:17;;;;;;;;;;;;;;;-2.87;76.87;97482.59;106274;1277;123683;-85
2022/01/09 00:18:43;;;;;;;;;;;;;;;-2.87;77.41;97479.37;106373;1278;25353;-85
2022/01/09 00:21:09;;;;;;;;;;;;;;;-2.86;77.53;97476.77;106118;1277;22552;-85
2022/01/09 00:23:35;;;;;;;;;;;;;;;-2.85;77.45;97470.46;105802;1280;123896;-84
2022/01/09 00:26:02;;;;;;;;;;;;;;;-2.85;77.94;97467.97;106028;1281;22537;-85
2022/01/09 00:28:28;;;;;;;;;;;;;;;-2.83;77.91;97473.67;106327;1277;123803;-85
2022/01/09 00:30:54;;;;;;;;;;;;;;;-2.83;78.14;97468.84;106262;1277;24285;-84
2022/01/09 00:33:21;;;;;;;;;;;;;;;-2.83;77.74;97462.62;106391;1277;23134;-85
2022/01/09 00:35:49;;;;;;;;;;;;;;;-2.82;77.89;97459.83;106274;1277;124327;-84
2022/01/09 00:38:15;;;;;;;;;;;;;;;-2.77;78.02;97453.55;106329;1277;25365;-84
2022/01/09 00:40:41;;;;;;;;;;;;;;;-2.70;78.14;97444.70;105924;1278;125288;-84
2022/01/09 00:43:09;;;;;;;;;;;;;;;-2.62;78.44;97436.09;106584;1277;25385;-85
2022/01/09 00:45:36;;;;;;;;;;;;;;;-2.54;78.49;97431.00;106138;1277;124114;-85
2022/01/09 00:48:03;;;;;;;;;;;;;;;-2.47;78.43;97427.64;106343;1278;22525;-84
2022/01/09 00:50:29;;;;;;;;;;;;;;;-2.42;78.16;97423.32;106244;1278;22525;-85
2022/01/09 00:52:55;;;;;;;;;;;;;;;-2.38;78.06;97415.56;106291;1277;123503;-85
2022/01/09 00:55:21;;;;;;;;;;;;;;;-2.37;77.65;97418.08;106121;1281;22525;-85
2022/01/09 00:57:47;;;;;;;;;;;;;;;-2.37;77.84;97413.77;106287;1277;123671;-85
2022/01/09 01:00:14;;;;;;;;;;;;;;;-2.36;77.66;97412.88;106054;1278;23326;-85
2022/01/09 01:02:40;;;;;;;;;;;;;;;-2.39;77.88;97408.42;105977;1278;22795;-84
2022/01/09 01:05:07;;;;;;;;;;;;;;;-2.43;77.84;97406.43;105698;1282;123568;-86
2022/01/09 01:07:33;;;;;;;;;;;;;;;-2.46;77.93;97406.98;105911;1280;22543;-84
2022/01/09 01:09:59;;;;;;;;;;;;;;;-2.51;77.78;97405.38;106042;1280;124202;-84
2022/01/09 01:12:26;;;;;;;;;;;;;;;-2.57;78.14;97404.31;106044;1281;22528;-84
2022/01/09 01:14:52;;;;;;;;;;;;;;;-2.62;77.92;97398.89;106511;1277;22554;-85
2022/01/09 01:17:20;;;;;;;;;;;;;;;-2.69;78.22;97397.59;106269;1277;124198;-85
2022/01/09 01:19:46;;;;;;;;;;;;;;;-2.74;78.05;97399.85;106245;1277;22528;-85
2022/01/09 01:22:12;;;;;;;;;;;;;;;-2.78;78.54;97391.08;106176;1281;124281;-85
2022/01/09 01:24:39;;;;;;;;;;;;;;;-2.80;78.31;97388.37;106302;1277;25299;-85
2022/01/09 01:27:05;;;;;;;;;;;;;;;-2.85;78.55;97386.31;106398;1277;22581;-85
2022/01/09 01:29:32;;;;;;;;;;;;;;;-2.93;78.60;97386.33;106429;1277;123579;-85
2022/01/09 01:31:58;;;;;;;;;;;;;;;-2.96;78.75;97387.24;106409;1277;24418;-85
2022/01/09 01:34:24;;;;;;;;;;;;;;;-2.96;79.08;97389.73;106605;1280;123698;-85
2022/01/09 01:36:51;;;;;;;;;;;;;;;-2.98;79.12;97385.91;105838;1280;22563;-85
2022/01/09 01:39:17;;;;;;;;;;;;;;;-2.98;79.78;97384.98;106039;1277;22650;-85
2022/01/09 01:41:43;;;;;;;;;;;;;;;-2.96;79.46;97383.15;106216;1278;123285;-85
2022/01/09 01:44:10;;;;;;;;;;;;;;;-2.95;79.43;97376.73;106107;1278;22594;-86
2022/01/09 01:46:37;;;;;;;;;;;;;;;-2.91;79.59;97374.76;106154;1280;123628;-85
2022/01/09 01:49:04;;;;;;;;;;;;;;;-2.86;79.23;97372.56;106238;1277;26351;-85
2022/01/09 01:51:30;;;;;;;;;;;;;;;-2.81;79.43;97371.57;106045;1278;124519;-85
2022/01/09 01:53:57;;;;;;;;;;;;;;;-2.73;79.09;97368.87;106526;1277;22628;-87
2022/01/09 01:56:25;;;;;;;;;;;;;;;-2.69;79.04;97359.97;106168;1277;25352;-85
2022/01/09 01:58:51;;;;;;;;;;;;;;;-2.65;78.96;97354.86;105870;1277;123621;-85
2022/01/09 02:01:17;;;;;;;;;;;;;;;-2.62;78.84;97349.40;106150;1280;25200;-85
2022/01/09 02:03:44;;;;;;;;;;;;;;;-2.60;79.40;97351.56;106009;1280;123630;-85
2022/01/09 02:06:11;;;;;;;;;;;;;;;-2.56;79.22;97347.23;106243;1280;24284;-85
2022/01/09 02:08:37;;;;;;;;;;;;;;;-2.54;79.16;97346.21;106388;1280;25519;-85
2022/01/09 02:11:03;;;;;;;;;;;;;;;-2.56;78.83;97344.34;105936;1280;124144;-85
2022/01/09 02:13:30;;;;;;;;;;;;;;;-2.60;79.00;97340.92;106329;1280;22554;-85
2022/01/09 02:15:59;;;;;;;;;;;;;;;-2.63;79.03;97332.66;105770;1280;123696;-84
2022/01/09 02:18:25;;;;;;;;;;;;;;;-2.65;79.41;97329.98;105897;1280;22541;-84
2022/01/09 02:20:52;;;;;;;;;;;;;;;-2.65;79.65;97328.55;105804;1278;23071;-87
2022/01/09 02:23:19;;;;;;;;;;;;;;;-2.61;79.74;97326.83;105983;1280;124217;-87
2022/01/09 02:25:47;;;;;;;;;;;;;;;-2.57;79.52;97323.18;106261;1280;22563;-88
2022/01/09 02:28:14;;;;;;;;;;;;;;;-2.53;79.65;97321.74;106055;1280;123538;-85
2022/01/09 02:30:44;;;;;;;;;;;;;;;-2.52;79.57;97316.14;106308;1280;25521;-85
2022/01/09 02:33:11;;;;;;;;;;;;;;;-2.52;79.81;97315.27;106111;1280;22540;-85
2022/01/09 02:35:38;;;;;;;;;;;;;;;-2.50;80.00;97318.34;106153;1277;123479;-83
2022/01/09 02:38:04;;;;;;;;;;;;;;;-2.47;79.90;97319.27;106240;1277;25254;-85
2022/01/09 02:40:31;;;;;;;;;;;;;;;-2.45;79.88;97317.77;106171;1277;123637;-85
2022/01/09 02:42:58;;;;;;;;;;;;;;;-2.44;79.60;97317.47;106187;1278;22761;-85
2022/01/09 02:45:26;;;;;;;;;;;;;;;-2.52;78.99;97308.84;106236;1277;22672;-85
2022/01/09 02:47:54;;;;;;;;;;;;;;;-2.61;78.87;97308.44;106123;1278;124221;-84
2022/01/09 02:52:50;;;;;;;;;;;;;;;-2.68;79.86;97316.54;106031;1276;123510;-84
2022/01/09 02:55:16;;;;;;;;;;;;;;;-2.70;79.88;97319.73;106904;1277;25512;-84
2022/01/09 02:57:50;;;;;;;;;;;;;;;-2.71;79.75;97310.37;105527;1277;123678;-84
2022/01/09 03:00:30;;;;;;;;;;;;;;;-2.74;80.21;97300.73;105868;1277;22525;-84
2022/01/09 03:02:57;;;;;;;;;;;;;;;-2.75;80.80;97297.85;105697;1281;22557;-83
2022/01/09 03:05:26;;;;;;;;;;;;;;;-2.74;81.00;97296.15;106012;1280;123931;-84
2022/01/09 03:07:52;;;;;;;;;;;;;;;-2.73;81.08;97291.94;105976;1278;22549;-84
2022/01/09 03:10:19;;;;;;;;;;;;;;;-2.72;81.03;97287.81;105998;1277;124402;-83
2022/01/09 03:12:46;;;;;;;;;;;;;;;-2.68;80.93;97283.51;105988;1277;25388;-84
2022/01/09 03:15:13;;;;;;;;;;;;;;;-2.60;81.40;97286.04;105960;1277;25373;-85
2022/01/09 03:17:40;;;;;;;;;;;;;;;-2.53;81.06;97279.48;105759;1280;123454;-85
2022/01/09 03:20:08;;;;;;;;;;;;;;;-2.46;81.05;97280.05;105909;1280;22525;-85
2022/01/09 03:22:34;;;;;;;;;;;;;;;-2.39;81.09;97281.27;105785;1280;123797;-85
2022/01/09 03:25:00;;;;;;;;;;;;;;;-2.31;81.07;97279.82;105755;1283;22535;-85
2022/01/09 03:27:26;;;;;;;;;;;;;;;-2.29;80.71;97274.71;105936;1280;22553;-85
2022/01/09 03:29:53;;;;;;;;;;;;;;;-2.28;80.27;97276.03;105895;1280;123351;-85
2022/01/09 03:32:19;;;;;;;;;;;;;;;-2.29;80.19;97283.23;106023;1280;25298;-85
2022/01/09 03:34:45;;;;;;;;;;;;;;;-2.33;80.39;97287.27;105536;1280;123492;-84
2022/01/09 03:37:11;;;;;;;;;;;;;;;-2.36;80.33;97289.01;106140;1280;22532;-84
2022/01/09 03:39:37;;;;;;;;;;;;;;;-2.40;80.67;97280.80;105868;1277;123586;-85
2022/01/09 03:42:06;;;;;;;;;;;;;;;-2.40;80.57;97278.84;105962;1277;22560;-84
2022/01/09 03:44:33;;;;;;;;;;;;;;;-2.40;80.95;97271.33;105937;1279;22548;-85
2022/01/09 03:47:02;;;;;;;;;;;;;;;-2.37;81.04;97268.61;105843;1280;124356;-84
2022/01/09 03:49:28;;;;;;;;;;;;;;;-2.33;80.86;97260.89;106018;1277;22595;-84
2022/01/09 03:51:56;;;;;;;;;;;;;;;-2.31;81.03;97256.52;105910;1277;123978;-85
2022/01/09 03:54:22;;;;;;;;;;;;;;;-2.28;81.13;97254.33;105936;1277;25337;-85
2022/01/09 03:56:49;;;;;;;;;;;;;;;-2.22;81.20;97248.86;106132;1277;25393;-85
2022/01/09 03:59:16;;;;;;;;;;;;;;;-2.18;81.27;97242.27;105908;1277;123620;-84
2022/01/09 04:01:42;;;;;;;;;;;;;;;-2.16;80.90;97242.02;106251;1277;22550;-87
2022/01/09 04:04:08;;;;;;;;;;;;;;;-2.16;80.57;97240.23;105914;1277;123658;-87
2022/01/09 04:06:50;;;;;;;;;;;;;;;-2.15;80.31;97238.70;105813;1280;22618;-87
2022/01/09 04:12:03;;;;;;;;;;;;;;;-2.16;80.06;97236.66;106043;1277;123326;-87
2022/01/09 04:14:30;;;;;;;;;;;;;;;-2.19;79.63;97226.05;106108;1277;24383;-87
2022/01/09 04:16:56;;;;;;;;;;;;;;;-2.23;79.65;97226.34;106072;1277;123710;-86
2022/01/09 04:19:22;;;;;;;;;;;;;;;-2.27;79.59;97222.79;106397;1277;22579;-86
2022/01/09 04:21:48;;;;;;;;;;;;;;;-2.30;79.46;97214.85;106058;1277;124380;-84
2022/01/09 04:24:14;;;;;;;;;;;;;;;-2.29;79.74;97212.27;106187;1277;23958;-86
2022/01/09 04:26:55;;;;;;;;;;;;;;;-2.29;79.53;97207.89;106125;1280;22544;-87
2022/01/09 04:29:21;;;;;;;;;;;;;;;-2.29;79.58;97215.30;106090;1277;123394;-86
2022/01/09 04:31:47;;;;;;;;;;;;;;;-2.28;79.73;97215.44;106216;1277;23178;-86
2022/01/09 04:34:13;;;;;;;;;;;;;;;-2.29;79.53;97215.15;105906;1280;123688;-85
2022/01/09 04:36:39;;;;;;;;;;;;;;;-2.31;79.58;97218.41;106216;1277;24230;-86
2022/01/09 04:39:05;;;;;;;;;;;;;;;-2.37;79.25;97223.00;106264;1277;25235;-84
2022/01/09 04:41:31;;;;;;;;;;;;;;;-2.46;79.74;97225.31;106045;1277;124407;-85
2022/01/09 04:43:57;;;;;;;;;;;;;;;-2.47;80.08;97226.87;106164;1277;25330;-84
2022/01/09 04:46:31;;;;;;;;;;;;;;;-2.47;79.94;97226.33;106188;1278;124043;-84
2022/01/09 04:48:58;;;;;;;;;;;;;;;-2.45;80.21;97224.83;106240;1277;31751;-84
2022/01/09 04:51:24;;;;;;;;;;;;;;;-2.45;80.09;97224.26;106541;1277;22603;-85
2022/01/09 04:53:50;;;;;;;;;;;;;;;-2.50;79.91;97218.68;105916;1277;124161;-85
2022/01/09 04:56:16;;;;;;;;;;;;;;;-2.56;79.70;97218.91;105940;1277;22559;-85
2022/01/09 04:58:42;;;;;;;;;;;;;;;-2.61;80.13;97225.02;106062;1277;123659;-84
2022/01/09 05:01:08;;;;;;;;;;;;;;;-2.64;79.93;97225.08;105923;1277;123794;-85
2022/01/09 05:03:34;;;;;;;;;;;;;;;-2.68;79.97;97224.02;106040;1277;22560;-84
2022/01/09 05:06:00;;;;;;;;;;;;;;;-2.74;79.62;97224.53;106098;1277;22528;-84
2022/01/09 05:08:27;;;;;;;;;;;;;;;-2.80;79.84;97225.34;105999;1280;124632;-85
2022/01/09 05:10:53;;;;;;;;;;;;;;;-2.88;79.74;97225.77;105914;1280;22654;-85
2022/01/09 05:13:19;;;;;;;;;;;;;;;-2.96;79.67;97223.34;105636;1280;123780;-84
2022/01/09 05:15:45;;;;;;;;;;;;;;;-3.02;79.51;97224.39;105803;1280;25353;-85
2022/01/09 05:18:15;;;;;;;;;;;;;;;-3.06;79.54;97225.75;105758;1281;22541;-84
2022/01/09 05:20:44;;;;;;;;;;;;;;;-3.08;79.38;97223.38;105965;1278;123795;-85
2022/01/09 05:23:10;;;;;;;;;;;;;;;-3.09;79.48;97221.37;106074;1277;25419;-85
2022/01/09 05:25:37;;;;;;;;;;;;;;;-3.11;79.43;97222.73;105919;1277;123614;-84
2022/01/09 05:28:03;;;;;;;;;;;;;;;-3.13;79.34;97225.75;106037;1274;24270;-84
2022/01/09 05:30:29;;;;;;;;;;;;;;;-3.15;79.51;97227.83;105886;1278;123846;-84
2022/01/09 05:32:55;;;;;;;;;;;;;;;-3.18;79.13;97234.91;105990;1280;25324;-84
2022/01/09 05:35:22;;;;;;;;;;;;;;;-3.21;79.22;97236.60;106113;1277;25371;-84
2022/01/09 05:37:49;;;;;;;;;;;;;;;-3.26;78.84;97232.86;105880;1277;123719;-85
2022/01/09 05:40:15;;;;;;;;;;;;;;;-3.32;79.05;97235.70;105984;1277;23164;-85
2022/01/09 05:42:41;;;;;;;;;;;;;;;-3.39;79.17;97238.48;105905;1277;123876;-85
2022/01/09 05:45:08;;;;;;;;;;;;;;;-3.44;78.98;97234.94;106117;1277;23861;-85
2022/01/09 05:47:34;;;;;;;;;;;;;;;-3.50;79.75;97233.25;105943;1278;22544;-85
2022/01/09 05:50:00;;;;;;;;;;;;;;;-3.54;79.60;97238.18;105971;1277;123708;-85
2022/01/09 05:52:26;;;;;;;;;;;;;;;-3.59;79.78;97236.52;106101;1277;25397;-85
2022/01/09 05:54:52;;;;;;;;;;;;;;;-3.62;80.23;97240.98;106152;1277;124439;-85
2022/01/09 05:57:18;;;;;;;;;;;;;;;-3.63;80.16;97241.05;106192;1277;22547;-85
2022/01/09 05:59:44;;;;;;;;;;;;;;;-3.62;80.40;97240.24;105938;1277;22571;-85
2022/01/09 06:02:10;;;;;;;;;;;;;;;-3.64;80.05;97244.02;106210;1278;123758;-85
2022/01/09 06:04:36;;;;;;;;;;;;;;;-3.69;80.44;97248.52;106328;1277;25263;-85
2022/01/09 06:07:03;;;;;;;;;;;;;;;-3.74;80.65;97262.23;106177;1277;123610;-84
2022/01/09 06:09:29;;;;;;;;;;;;;;;-3.79;81.04;97264.16;106138;1280;25506;-85
2022/01/09 06:11:56;;;;;;;;;;;;;;;-3.85;80.77;97266.39;106278;1279;22547;-85
2022/01/09 06:14:22;;;;;;;;;;;;;;;-3.92;80.93;97268.48;106142;1277;123785;-84
2022/01/09 06:16:48;;;;;;;;;;;;;;;-3.99;80.64;97268.46;106182;1277;25352;-84
2022/01/09 06:19:14;;;;;;;;;;;;;;;-4.04;81.39;97276.41;106190;1277;123660;-84
2022/01/09 06:21:40;;;;;;;;;;;;;;;-4.03;81.76;97277.23;106309;1277;25354;-84
2022/01/09 06:24:06;;;;;;;;;;;;;;;-3.98;81.49;97273.67;106260;1277;22541;-84
2022/01/09 06:26:33;;;;;;;;;;;;;;;-3.90;82.16;97278.41;106164;1277;124253;-84
2022/01/09 06:28:59;;;;;;;;;;;;;;;-3.82;82.01;97270.34;105856;1277;25362;-84
2022/01/09 06:31:25;;;;;;;;;;;;;;;-3.75;81.89;97266.88;106344;1277;123626;-84
2022/01/09 06:33:51;;;;;;;;;;;;;;;-3.68;81.61;97261.17;106530;1277;22544;-84
2022/01/09 06:36:17;;;;;;;;;;;;;;;-3.64;82.00;97258.39;106194;1277;22530;-84
2022/01/09 06:38:43;;;;;;;;;;;;;;;-3.60;81.68;97257.63;106312;1277;123280;-84
2022/01/09 06:41:09;;;;;;;;;;;;;;;-3.56;81.98;97254.45;106332;1277;22528;-84
2022/01/09 06:43:35;;;;;;;;;;;;;;;-3.52;81.90;97252.66;106283;1274;123812;-84
2022/01/09 06:46:01;;;;;;;;;;;;;;;-3.47;81.90;97248.76;106422;1277;22537;-84
2022/01/09 06:48:27;;;;;;;;;;;;;;;-3.40;81.92;97256.77;106117;1280;124698;-85
2022/01/09 06:50:53;;;;;;;;;;;;;;;-3.33;81.97;97260.09;105881;1277;22711;-85
2022/01/09 06:53:19;;;;;;;;;;;;;;;-3.27;81.97;97258.08;106495;1277;23956;-84
2022/01/09 06:55:46;;;;;;;;;;;;;;;-3.20;82.51;97259.80;106419;1277;124052;-84
2022/01/09 06:58:14;;;;;;;;;;;;;;;-3.12;82.27;97258.58;106732;1277;23198;-84
2022/01/09 07:00:40;;;;;;;;;;;;;;;-3.06;82.83;97258.52;106669;1277;123962;-85
2022/01/09 07:03:06;;;;;;;;;;;;;;;-3.02;82.56;97259.59;106710;1277;25493;-85
2022/01/09 07:05:32;;;;;;;;;;;;;;;-2.99;82.41;97259.79;106385;1280;24225;-84
2022/01/09 07:07:58;;;;;;;;;;;;;;;-2.94;82.29;97262.33;106551;1277;123944;-85
2022/01/09 07:10:25;;;;;;;;;;;;;;;-2.89;81.99;97264.11;106246;1278;22693;-84
2022/01/09 07:12:51;;;;;;;;;;;;;;;-2.82;81.84;97265.63;106394;1278;124235;-84
2022/01/09 07:15:17;;;;;;;;;;;;;;;-2.76;81.91;97263.50;106493;1277;22543;-85
2022/01/09 07:17:43;;;;;;;;;;;;;;;-2.68;82.34;97264.48;106402;1277;22546;-84
2022/01/09 07:20:09;;;;;;;;;;;;;;;-2.59;81.94;97261.45;106634;1277;123761;-84
2022/01/09 07:22:35;;;;;;;;;;;;;;;-2.51;81.99;97258.11;106646;1277;23337;-84
2022/01/09 07:25:02;;;;;;;;;;;;;;;-2.47;81.60;97259.38;106250;1277;123658;-84
2022/01/09 07:27:28;;;;;;;;;;;;;;;-2.46;81.17;97257.38;106295;1277;22538;-84
2022/01/09 07:29:54;;;;;;;;;;;;;;;-2.48;80.89;97263.02;106398;1277;22528;-84
2022/01/09 07:32:20;;;;;;;;;;;;;;;-2.49;80.65;97263.02;106258;1277;123533;-84
2022/01/09 07:34:46;;;;;;;;;;;;;;;-2.55;81.09;97260.25;106407;1277;25325;-84
2022/01/09 07:37:12;;;;;;;;;;;;;;;-2.58;81.02;97257.86;106076;1277;123666;-84
2022/01/09 07:39:38;;;;;;;;;;;;;;;-2.57;81.25;97257.95;106496;1277;22532;-84
2022/01/09 07:42:05;;;;;;;;;;;;;;;-2.53;81.40;97255.11;106101;1277;22559;-84
2022/01/09 07:44:31;;;;;;;;;;;;;;;-2.46;81.34;97258.08;106066;1277;125043;-84
2022/01/09 07:46:57;;;;;;;;;;;;;;;-2.38;81.52;97259.55;105986;1277;25425;-84
2022/01/09 07:49:23;;;;;;;;;;;;;;;-2.39;80.71;97265.69;105918;1277;124364;-84
2022/01/09 07:51:50;;;;;;;;;;;;;;;-2.49;80.32;97267.48;106070;1277;24204;-84
2022/01/09 07:54:16;;;;;;;;;;;;;;;-2.57;80.82;97262.77;106019;1277;22541;-84
2022/01/09 07:56:42;;;;;;;;;;;;;;;-2.57;80.73;97260.85;105977;1277;123330;-84
2022/01/09 07:59:08;;;;;;;;;;;;;;;-2.61;80.74;97258.77;106097;1277;24312;-84
2022/01/09 08:01:34;;;;;;;;;;;;;;;-2.61;81.28;97254.79;105998;1277;123536;-85
2022/01/09 08:04:00;;;;;;;;;;;;;;;-2.60;81.46;97254.80;105912;1277;25247;-85
2022/01/09 08:06:26;;;;;;;;;;;;;;;-2.55;81.67;97254.67;105975;1277;123634;-85
2022/01/09 08:08:52;;;;;;;;;;;;;;;-2.49;82.08;97255.16;106082;1277;22663;-85
2022/01/09 08:11:18;;;;;;;;;;;;;;;-2.41;82.17;97252.45;106198;1277;25368;-84
2022/01/09 08:13:44;;;;;;;;;;;;;;;-2.33;82.26;97248.79;106139;1277;124051;-84
2022/01/09 08:16:11;;;;;;;;;;;;;;;-2.25;82.27;97248.95;106161;1277;25451;-84
2022/01/09 08:18:38;;;;;;;;;;;;;;;-2.15;82.14;97250.20;106368;1277;124394;-84
2022/01/09 08:21:04;;;;;;;;;;;;;;;-2.05;82.03;97255.44;106904;1277;22589;-84
2022/01/09 08:23:30;;;;;;;;;;;;;;;-1.97;81.83;97249.23;106634;1277;24483;-84
2022/01/09 08:25:56;;;;;;;;;;;;;;;-1.88;81.74;97248.05;106331;1277;125257;-84
2022/01/09 08:28:22;;;;;;;;;;;;;;;-1.76;81.41;97247.58;106624;1277;22581;-84
2022/01/09 08:30:48;;;;;;;;;;;;;;;-1.67;81.04;97243.48;107172;1277;124014;-84
2022/01/09 08:33:15;;;;;;;;;;;;;;;-1.53;80.88;97243.77;106216;1277;22672;-84
2022/01/09 08:35:41;;;;;;;;;;;;;;;-1.42;80.01;97241.87;106096;1277;22579;-84
2022/01/09 08:38:07;;;;;;;;;;;;;;;-1.36;79.44;97239.24;106026;1277;123567;-85
2022/01/09 08:40:33;;;;;;;;;;;;;;;-1.33;78.78;97237.98;106157;1277;25306;-84
2022/01/09 08:42:59;;;;;;;;;;;;;;;-1.31;78.71;97232.28;106011;1280;123823;-85
2022/01/09 08:45:25;;;;;;;;;;;;;;;-1.30;78.16;97226.57;105995;1280;24254;-85
2022/01/09 08:47:51;;;;;;;;;;;;;;;-1.30;77.96;97227.67;106090;1277;22525;-85
2022/01/09 08:50:19;;;;;;;;;;;;;;;-1.31;77.74;97225.96;105875;1280;124151;-85
2022/01/09 08:52:45;;;;;;;;;;;;;;;-1.31;77.64;97223.29;106328;1277;22553;-85
2022/01/09 08:55:13;;;;;;;;;;;;;;;-1.30;77.48;97225.48;105943;1277;123451;-85
2022/01/09 08:57:39;;;;;;;;;;;;;;;-1.29;77.24;97221.61;106381;1277;22523;-86
2022/01/09 09:00:06;;;;;;;;;;;;;;;-1.28;77.12;97218.27;106087;1277;24322;-85
2022/01/09 09:02:32;;;;;;;;;;;;;;;-1.27;76.99;97218.48;106250;1277;123660;-86
2022/01/09 09:04:58;;;;;;;;;;;;;;;-1.24;76.82;97215.33;106287;1277;25386;-86
2022/01/09 09:07:25;;;;;;;;;;;;;;;-1.19;76.75;97214.82;106522;1277;124808;-89
2022/01/09 09:09:51;;;;;;;;;;;;;;;-1.15;76.86;97211.02;106206;1277;24300;-87
2022/01/09 09:12:19;;;;;;;;;;;;;;;-1.09;76.69;97210.65;106241;1277;22537;-88
2022/01/09 09:14:46;;;;;;;;;;;;;;;-1.05;76.76;97208.81;106114;1277;123265;-88
2022/01/09 09:17:13;;;;;;;;;;;;;;;-0.99;76.76;97209.48;106497;1277;22575;-88
2022/01/09 09:19:39;;;;;;;;;;;;;;;-0.93;76.47;97211.46;106457;1277;123459;-88
2022/01/09 09:22:05;;;;;;;;;;;;;;;-0.89;76.19;97204.93;106303;1277;23913;-88
2022/01/09 09:34:43;;;;;;;43.30;19.50;;;;;;;-0.37;75.47;97200.61;103633;1306;557149;-88
2022/01/09 09:37:09;;;;;;;31.50;15.30;;;;;;;-0.28;75.05;97198.91;105300;1287;25330;-88
2022/01/09 09:39:35;;;;;;;39.50;18.40;;;;;;;-0.17;73.87;97196.89;104542;1290;137007;-87
2022/01/09 09:42:02;;;;;;;39.70;18.60;;;;;;;-0.09;73.66;97194.30;104704;1290;22592;-87
2022/01/09 09:44:29;;;;;;;37.80;19.20;;;;;;;-0.01;73.71;97191.06;104609;1289;136846;-87
2022/01/09 09:46:56;;;;;;;46.60;21.30;;;;;;;0.07;73.36;97193.81;104654;1290;195488;-87
2022/01/09 09:49:22;;;;;;;40.60;19.80;;;;;;;0.15;73.19;97194.66;105135;1288;24364;-87
2022/01/09 09:51:49;;;;;;;48.20;23.30;;;;;;;0.22;72.96;97192.86;104949;1290;136364;-87
2022/01/09 09:54:15;;;;;;;45.70;23.50;;;;;;;0.27;73.08;97191.95;105373;1290;22583;-89
2022/01/09 09:56:41;;;;;;;46.10;22.40;;;;;;;0.33;72.90;97194.27;104590;1289;136890;-89
2022/01/09 09:59:08;;;;;;;49.70;23.20;;;;;;;0.39;72.86;97192.56;104864;1289;25460;-87
2022/01/09 10:01:36;;;;;;;44.80;21.20;;;;;;;0.45;72.61;97195.84;104632;1289;137042;-87
2022/01/09 10:04:08;;;;;;;45.30;21.80;;;;;;;0.50;72.85;97190.99;105153;1286;24803;-87
2022/01/09 10:06:43;;;;;;;40.70;20.70;;;;;;;0.57;72.38;97191.59;105103;1284;22557;-87
2022/01/09 10:09:15;;;;;;;41.30;20.20;;;;;;;0.61;72.00;97192.70;105064;1284;137177;-87
2022/01/09 10:11:50;;;;;;;37.80;18.60;;;;;;;0.65;71.94;97193.44;105589;1281;23953;-87
2022/01/09 10:14:25;;;;;;;35.90;17.50;;;;;;;0.69;71.60;97190.95;105581;1281;137307;-87
2022/01/09 10:17:19;;;;;;;35.20;17.70;;;;;;;0.73;71.43;97192.69;105414;1281;22569;-87
2022/01/09 10:19:56;;;;;;;40.40;19.60;;;;;;;0.78;71.31;97196.36;105549;1281;137382;-86
2022/01/09 10:22:44;;;;;;;41.40;21.10;;;;;;;0.83;71.29;97194.65;105381;1281;22981;-87
2022/01/09 10:25:25;;;;;;;43.90;20.90;;;;;;;0.86;71.08;97189.48;105817;1281;25450;-87
2022/01/09 10:27:57;;;;;;;42.00;20.90;;;;;;;0.91;70.90;97190.08;105842;1281;137471;-86
2022/01/09 10:30:45;;;;;;;45.20;20.10;;;;;;;0.96;70.83;97188.64;105805;1281;22583;-83
2022/01/09 10:33:17;;;;;;;46.90;21.90;;;;;;;1.02;70.53;97187.86;105587;1281;137004;-90
2022/01/09 10:35:45;;;;;;;44.90;21.00;;;;;;;1.07;70.50;97186.06;105787;1281;25393;-87
2022/01/09 10:38:19;;;;;;;44.50;20.40;;;;;;;1.17;70.58;97179.10;105605;1281;137426;-86
2022/01/09 10:40:54;;;;;;;53.70;23.40;;;;;;;1.23;70.51;97177.83;105518;1282;24713;-84
2022/01/09 10:43:23;;;;;;;48.30;22.10;;;;;;;1.29;70.11;97174.52;106070;1281;22755;-84
2022/01/09 10:45:59;;;;;;;36.60;19.50;;;;;;;1.34;69.89;97174.05;105908;1280;137074;-88
2022/01/09 10:48:33;;;;;;;45.90;21.50;;;;;;;1.38;69.71;97170.91;106525;1283;22549;-88
2022/01/09 10:51:02;;;;;;;41.60;21.00;;;;;;;1.46;69.75;97168.54;106082;1281;137898;-88
2022/01/09 10:53:34;;;;;;;39.30;19.80;;;;;;;1.53;69.44;97167.70;106178;1280;22625;-88
2022/01/09 10:56:04;;;;;;;40.60;20.30;;;;;;;1.60;69.22;97169.95;105438;1281;137177;-89
2022/01/09 10:58:34;;;;;;;39.00;20.60;;;;;;;1.66;69.22;97171.02;106196;1282;22584;-90
2022/01/09 11:01:23;;;;;;;39.80;19.40;;;;;;;1.72;68.97;97165.98;106608;1281;23568;-87
2022/01/09 11:03:54;;;;;;;39.20;19.00;;;;;;;1.77;68.86;97164.27;105589;1282;139407;-92
2022/01/09 11:06:23;;;;;;;35.80;18.40;;;;;;;1.82;68.25;97164.56;106516;1280;22572;-89
2022/01/09 11:08:51;;;;;;;38.70;20.30;;;;;;;1.84;68.25;97160.66;106491;1280;137017;-90
2022/01/09 11:11:27;;;;;;;38.40;19.60;;;;;;;1.87;68.35;97159.42;105884;1280;22710;-91
2022/01/09 11:13:56;;;;;;;35.90;20.20;;;;;;;1.92;68.12;97159.88;106706;1281;135968;-88
2022/01/09 11:16:38;;;;;;;40.90;19.50;;;;;;;1.95;67.99;97159.55;106586;1280;22635;-87
2022/01/09 11:19:08;;;;;;;35.00;18.00;;;;;;;1.96;67.82;97161.57;106206;1282;22567;-89
2022/01/09 11:21:38;;;;;;;47.40;20.80;;;;;;;1.98;67.75;97163.33;105828;1284;137196;-88
2022/01/09 11:24:21;;;;;;;40.30;19.00;;;;;;;2.01;67.82;97157.67;106119;1282;22506;-88
2022/01/09 11:26:53;;;;;;;43.40;21.90;;;;;;;2.03;67.39;97155.55;106320;1283;137518;-90
2022/01/09 11:29:29;;;;;;;41.30;19.90;;;;;;;2.05;67.51;97155.63;106253;1281;25267;-87
2022/01/09 11:32:02;;;;;;;43.50;20.60;;;;;;;2.07;67.30;97154.10;106257;1281;137589;-88
2022/01/09 11:34:51;;;;;;;38.20;20.70;;;;;;;2.09;67.60;97155.54;106108;1281;22615;-88
2022/01/09 11:37:50;;;;;;;38.30;18.50;;;;;;;2.13;67.49;97152.64;106134;1280;22700;-88
2022/01/09 11:40:25;;;;;;;38.20;18.50;;;;;;;2.17;67.10;97153.02;106234;1282;22559;-87
2022/01/09 11:43:08;;;;;;;31.50;16.60;;;;;;;2.20;67.08;97150.96;106203;1280;22729;-88
2022/01/09 11:45:46;;;;;;;35.60;18.00;;;;;;;2.24;66.76;97152.15;106232;1282;137100;-88
2022/01/09 11:48:18;;;;;;;33.30;16.80;;;;;;;2.28;66.68;97150.85;106686;1282;30770;-87
2022/01/09 11:51:06;;;;;;;32.20;16.10;;;;;;;2.33;66.51;97149.56;106347;1283;142017;-87
2022/01/09 11:54:10;;;;;;;29.90;16.40;;;;;;;2.40;66.51;97142.66;106276;1283;22633;-87
2022/01/09 11:56:57;;;;;;;38.50;18.10;;;;;;;2.49;66.34;97148.30;106533;1283;136983;-87
2022/01/09 11:59:32;;;;;;;36.40;17.30;;;;;;;2.55;66.06;97148.77;106589;1281;22589;-87
2022/01/09 12:02:01;;;;;;;38.60;18.80;;;;;;;2.59;65.81;97151.40;106193;1279;137784;-87
2022/01/09 12:04:33;;;;;;;;;;;;;;;2.63;65.67;97146.51;106597;1279;22575;-87
2022/01/09 12:07:03;;;;;;;38.30;18.50;;;;;;;2.66;65.64;97146.67;106499;1279;123094;-87
2022/01/09 12:09:34;;;;;;;39.00;19.20;;;;;;;2.71;65.55;97143.89;107335;1277;23074;-86
2022/01/09 12:12:05;;;;;;;34.10;16.60;;;;;;;2.75;65.41;97142.88;106558;1278;24270;-86
2022/01/09 12:14:54;;;;;;;35.40;17.90;;;;;;;2.81;65.19;97144.21;106830;1279;137042;-85
2022/01/09 12:17:21;;;;;;;41.10;19.60;;;;;;;2.87;65.34;97143.30;107125;1280;22547;-86
2022/01/09 12:20:05;;;;;;;42.10;19.10;;;;;;;2.90;65.05;97144.25;106863;1277;137790;-86
2022/01/09 12:22:48;;;;;;;31.20;15.60;;;;;;;2.93;64.48;97146.27;106455;1280;25409;-86
2022/01/09 12:25:28;;;;;;;30.80;16.30;;;;;;;2.95;64.05;97146.20;106385;1278;137259;-86
2022/01/09 12:27:54;;;;;;;;;;;;;;;2.97;64.02;97145.77;106137;1278;22611;-86
2022/01/09 12:30:33;;;;;;;38.70;19.70;;;;;;;2.97;64.58;97142.45;106033;1279;23924;-85
2022/01/09 12:33:00;;;;;;;39.50;19.50;;;;;;;2.99;64.78;97143.67;106170;1279;136963;-85
2022/01/09 12:35:27;;;;;;;40.40;21.40;;;;;;;2.99;64.83;97136.25;106519;1279;25380;-85